sensor_id;sensor_type;location;lat;lon;timestamp;pressure;altitude;pressure_sealevel;temperature;humidity
71768;BME280;59604;52.138;5.446;2022-09-09T00:06:33;100910.25;;;15.61;86.94
71768;BME280;59604;52.138;5.446;2022-09-09T00:09:19;100906.56;;;15.62;86.87
71768;BME280;59604;52.138;5.446;2022-09-09T00:12:14;100903.28;;;15.60;86.79
71768;BME280;59604;52.138;5.446;2022-09-09T00:14:55;100891.28;;;15.58;86.98
71768;BME280;59604;52.138;5.446;2022-09-09T00:17:49;100904.09;;;15.61;87.25
71768;BME280;59604;52.138;5.446;2022-09-09T00:20:32;100901.06;;;15.57;86.88
71768;BME280;59604;52.138;5.446;2022-09-09T00:23:24;100892.53;;;15.55;87.15
71768;BME280;59604;52.138;5.446;2022-09-09T00:26:14;100893.56;;;15.54;87.43
71768;BME280;59604;52.138;5.446;2022-09-09T00:28:50;100894.38;;;15.55;87.24
71768;BME280;59604;52.138;5.446;2022-09-09T00:31:20;100902.53;;;15.53;87.14
71768;BME280;59604;52.138;5.446;2022-09-09T00:33:50;100893.63;;;15.48;87.51
71768;BME280;59604;52.138;5.446;2022-09-09T00:36:23;100900.41;;;15.43;87.80
71768;BME280;59604;52.138;5.446;2022-09-09T00:38:57;100909.19;;;15.44;87.70
71768;BME280;59604;52.138;5.446;2022-09-09T00:44:20;100891.09;;;15.34;87.99
71768;BME280;59604;52.138;5.446;2022-09-09T00:47:21;100895.81;;;15.32;88.18
71768;BME280;59604;52.138;5.446;2022-09-09T00:50:00;100889.91;;;15.30;88.33
71768;BME280;59604;52.138;5.446;2022-09-09T00:52:39;100895.25;;;15.23;88.57
71768;BME280;59604;52.138;5.446;2022-09-09T00:57:35;100890.88;;;15.11;88.98
71768;BME280;59604;52.138;5.446;2022-09-09T01:02:47;100898.41;;;15.14;89.10
71768;BME280;59604;52.138;5.446;2022-09-09T01:11:33;100906.03;;;15.04;88.89
71768;BME280;59604;52.138;5.446;2022-09-09T01:14:11;100903.56;;;15.02;88.67
71768;BME280;59604;52.138;5.446;2022-09-09T01:16:40;100910.16;;;15.00;88.82
71768;BME280;59604;52.138;5.446;2022-09-09T01:19:11;100901.56;;;14.97;89.12
71768;BME280;59604;52.138;5.446;2022-09-09T01:22:02;100901.19;;;14.94;88.89
71768;BME280;59604;52.138;5.446;2022-09-09T01:25:07;100894.50;;;14.91;89.34
71768;BME280;59604;52.138;5.446;2022-09-09T01:27:40;100889.00;;;14.86;89.12
71768;BME280;59604;52.138;5.446;2022-09-09T01:30:10;100887.00;;;14.82;89.31
71768;BME280;59604;52.138;5.446;2022-09-09T01:32:49;100877.84;;;14.78;89.27
71768;BME280;59604;52.138;5.446;2022-09-09T01:35:29;100874.22;;;14.72;89.51
71768;BME280;59604;52.138;5.446;2022-09-09T01:37:59;100879.50;;;14.72;89.65
71768;BME280;59604;52.138;5.446;2022-09-09T01:40:26;100875.25;;;14.71;89.56
71768;BME280;59604;52.138;5.446;2022-09-09T01:42:53;100880.97;;;14.68;89.29
71768;BME280;59604;52.138;5.446;2022-09-09T01:45:21;100879.53;;;14.65;89.52
71768;BME280;59604;52.138;5.446;2022-09-09T01:47:48;100880.38;;;14.66;89.40
71768;BME280;59604;52.138;5.446;2022-09-09T01:50:16;100882.81;;;14.67;89.20
71768;BME280;59604;52.138;5.446;2022-09-09T01:52:46;100884.09;;;14.58;89.54
71768;BME280;59604;52.138;5.446;2022-09-09T01:55:14;100881.06;;;14.55;89.41
71768;BME280;59604;52.138;5.446;2022-09-09T01:58:10;100888.81;;;14.49;89.77
71768;BME280;59604;52.138;5.446;2022-09-09T02:00:44;100878.84;;;14.45;89.74
71768;BME280;59604;52.138;5.446;2022-09-09T02:03:32;100876.19;;;14.45;89.87
71768;BME280;59604;52.138;5.446;2022-09-09T02:06:32;100877.22;;;14.44;89.88
71768;BME280;59604;52.138;5.446;2022-09-09T02:09:03;100876.59;;;14.42;90.04
71768;BME280;59604;52.138;5.446;2022-09-09T02:11:30;100873.78;;;14.37;89.50
71768;BME280;59604;52.138;5.446;2022-09-09T02:14:01;100876.84;;;14.34;89.81
71768;BME280;59604;52.138;5.446;2022-09-09T02:16:48;100868.69;;;14.35;90.27
71768;BME280;59604;52.138;5.446;2022-09-09T02:19:23;100867.28;;;14.33;89.78
71768;BME280;59604;52.138;5.446;2022-09-09T02:21:54;100865.88;;;14.23;89.73
71768;BME280;59604;52.138;5.446;2022-09-09T02:24:22;100865.69;;;14.25;89.91
71768;BME280;59604;52.138;5.446;2022-09-09T02:26:51;100865.09;;;14.23;89.67
71768;BME280;59604;52.138;5.446;2022-09-09T02:29:33;100859.16;;;14.21;89.78
71768;BME280;59604;52.138;5.446;2022-09-09T02:32:04;100859.16;;;14.21;89.90
71768;BME280;59604;52.138;5.446;2022-09-09T02:34:35;100862.25;;;14.18;89.94
71768;BME280;59604;52.138;5.446;2022-09-09T02:37:03;100868.97;;;14.20;90.16
71768;BME280;59604;52.138;5.446;2022-09-09T02:39:30;100857.56;;;14.20;90.03
71768;BME280;59604;52.138;5.446;2022-09-09T02:41:57;100853.69;;;14.16;90.13
71768;BME280;59604;52.138;5.446;2022-09-09T02:44:23;100855.53;;;14.15;90.40
71768;BME280;59604;52.138;5.446;2022-09-09T02:58:01;100860.47;;;14.05;90.18
71768;BME280;59604;52.138;5.446;2022-09-09T03:00:30;100856.41;;;14.02;90.38
71768;BME280;59604;52.138;5.446;2022-09-09T03:02:57;100856.63;;;14.01;90.09
71768;BME280;59604;52.138;5.446;2022-09-09T03:05:23;100859.91;;;13.96;90.33
71768;BME280;59604;52.138;5.446;2022-09-09T03:07:50;100851.97;;;13.96;91.07
71768;BME280;59604;52.138;5.446;2022-09-09T03:10:17;100851.53;;;13.99;90.62
71768;BME280;59604;52.138;5.446;2022-09-09T03:12:43;100852.53;;;13.98;90.56
71768;BME280;59604;52.138;5.446;2022-09-09T03:15:10;100855.41;;;13.97;90.62
71768;BME280;59604;52.138;5.446;2022-09-09T03:17:37;100850.31;;;13.95;90.41
71768;BME280;59604;52.138;5.446;2022-09-09T03:20:04;100852.16;;;13.95;90.50
71768;BME280;59604;52.138;5.446;2022-09-09T03:22:30;100856.84;;;13.93;90.33
71768;BME280;59604;52.138;5.446;2022-09-09T03:24:56;100859.91;;;13.90;90.54
71768;BME280;59604;52.138;5.446;2022-09-09T03:27:23;100857.28;;;13.90;90.77
71768;BME280;59604;52.138;5.446;2022-09-09T03:29:49;100859.53;;;13.86;90.59
71768;BME280;59604;52.138;5.446;2022-09-09T03:32:19;100855.44;;;13.84;90.41
71768;BME280;59604;52.138;5.446;2022-09-09T03:34:45;100849.75;;;13.80;90.91
71768;BME280;59604;52.138;5.446;2022-09-09T03:37:13;100852.41;;;13.80;90.76
71768;BME280;59604;52.138;5.446;2022-09-09T03:39:40;100849.75;;;13.80;90.77
71768;BME280;59604;52.138;5.446;2022-09-09T03:42:06;100854.47;;;13.78;90.76
71768;BME280;59604;52.138;5.446;2022-09-09T03:44:33;100856.50;;;13.76;90.80
71768;BME280;59604;52.138;5.446;2022-09-09T03:46:59;100848.78;;;13.74;90.76
71768;BME280;59604;52.138;5.446;2022-09-09T03:49:29;100851.59;;;13.73;90.95
71768;BME280;59604;52.138;5.446;2022-09-09T03:51:56;100849.34;;;13.76;90.88
71768;BME280;59604;52.138;5.446;2022-09-09T03:54:24;100843.66;;;13.80;90.90
71768;BME280;59604;52.138;5.446;2022-09-09T03:56:50;100845.06;;;13.82;90.85
71768;BME280;59604;52.138;5.446;2022-09-09T03:59:17;100846.91;;;13.82;90.87
71768;BME280;59604;52.138;5.446;2022-09-09T04:01:43;100851.59;;;13.80;90.78
71768;BME280;59604;52.138;5.446;2022-09-09T04:04:11;100848.53;;;13.76;90.89
71768;BME280;59604;52.138;5.446;2022-09-09T04:06:38;100843.06;;;13.71;90.92
71768;BME280;59604;52.138;5.446;2022-09-09T04:09:05;100842.28;;;13.70;91.04
71768;BME280;59604;52.138;5.446;2022-09-09T04:11:31;100835.13;;;13.71;91.13
71768;BME280;59604;52.138;5.446;2022-09-09T04:13:57;100833.50;;;13.70;90.95
71768;BME280;59604;52.138;5.446;2022-09-09T04:16:24;100843.66;;;13.73;90.91
71768;BME280;59604;52.138;5.446;2022-09-09T04:18:50;100843.66;;;13.73;90.89
71768;BME280;59604;52.138;5.446;2022-09-09T04:21:17;100842.69;;;13.67;90.84
71768;BME280;59604;52.138;5.446;2022-09-09T04:23:43;100836.75;;;13.65;91.16
71768;BME280;59604;52.138;5.446;2022-09-09T04:26:10;100837.56;;;13.66;91.27
71768;BME280;59604;52.138;5.446;2022-09-09T04:28:36;100832.50;;;13.64;91.26
71768;BME280;59604;52.138;5.446;2022-09-09T04:31:08;100838.44;;;13.60;91.35
71768;BME280;59604;52.138;5.446;2022-09-09T04:33:35;100830.47;;;13.60;91.47
71768;BME280;59604;52.138;5.446;2022-09-09T04:36:06;100844.75;;;13.59;91.54
71768;BME280;59604;52.138;5.446;2022-09-09T04:38:32;100837.63;;;13.59;91.72
71768;BME280;59604;52.138;5.446;2022-09-09T04:40:59;100839.81;;;13.62;91.86
71768;BME280;59604;52.138;5.446;2022-09-09T04:43:25;100845.31;;;13.67;92.21
71768;BME280;59604;52.138;5.446;2022-09-09T04:45:52;100833.69;;;13.75;92.31
71768;BME280;59604;52.138;5.446;2022-09-09T04:48:20;100825.34;;;13.78;92.22
71768;BME280;59604;52.138;5.446;2022-09-09T04:51:13;100829.38;;;13.81;92.28
71768;BME280;59604;52.138;5.446;2022-09-09T04:53:40;100825.50;;;13.83;92.09
71768;BME280;59604;52.138;5.446;2022-09-09T04:56:07;100813.47;;;13.87;91.68
71768;BME280;59604;52.138;5.446;2022-09-09T04:58:37;100820.19;;;13.90;91.63
71768;BME280;59604;52.138;5.446;2022-09-09T05:01:22;100816.97;;;13.81;91.52
71768;BME280;59604;52.138;5.446;2022-09-09T05:03:50;100824.94;;;13.81;91.29
71768;BME280;59604;52.138;5.446;2022-09-09T05:06:20;100828.56;;;13.80;91.76
71768;BME280;59604;52.138;5.446;2022-09-09T05:08:46;100826.97;;;13.79;91.82
71768;BME280;59604;52.138;5.446;2022-09-09T05:11:22;100830.63;;;13.78;91.81
71768;BME280;59604;52.138;5.446;2022-09-09T05:13:50;100835.13;;;13.77;91.68
71768;BME280;59604;52.138;5.446;2022-09-09T05:16:17;100829.44;;;13.74;91.79
71768;BME280;59604;52.138;5.446;2022-09-09T05:18:46;100821.69;;;13.72;92.06
71768;BME280;59604;52.138;5.446;2022-09-09T05:21:14;100824.13;;;13.74;92.02
71768;BME280;59604;52.138;5.446;2022-09-09T05:23:41;100817.19;;;13.73;92.27
71768;BME280;59604;52.138;5.446;2022-09-09T05:26:12;100814.53;;;13.73;92.22
71768;BME280;59604;52.138;5.446;2022-09-09T05:28:43;100816.38;;;13.72;92.23
71768;BME280;59604;52.138;5.446;2022-09-09T05:31:11;100818.03;;;13.73;92.31
71768;BME280;59604;52.138;5.446;2022-09-09T05:33:40;100807.63;;;13.72;92.60
71768;BME280;59604;52.138;5.446;2022-09-09T05:36:15;100806.59;;;13.73;92.53
71768;BME280;59604;52.138;5.446;2022-09-09T05:38:43;100807.81;;;13.77;92.65
71768;BME280;59604;52.138;5.446;2022-09-09T05:41:11;100808.03;;;13.75;92.61
71768;BME280;59604;52.138;5.446;2022-09-09T05:43:38;100806.00;;;13.77;92.51
71768;BME280;59604;52.138;5.446;2022-09-09T05:46:09;100814.53;;;13.80;92.02
71768;BME280;59604;52.138;5.446;2022-09-09T05:48:38;100813.09;;;13.84;92.24
71768;BME280;59604;52.138;5.446;2022-09-09T05:51:06;100809.63;;;13.83;92.40
71768;BME280;59604;52.138;5.446;2022-09-09T05:53:34;100809.63;;;13.83;92.41
71768;BME280;59604;52.138;5.446;2022-09-09T05:56:09;100805.94;;;13.84;92.66
71768;BME280;59604;52.138;5.446;2022-09-09T05:58:38;100809.00;;;13.88;92.82
71768;BME280;59604;52.138;5.446;2022-09-09T06:01:10;100805.13;;;13.90;92.86
71768;BME280;59604;52.138;5.446;2022-09-09T06:03:39;100816.09;;;13.94;92.70
71768;BME280;59604;52.138;5.446;2022-09-09T06:06:08;100826.28;;;13.97;92.73
71768;BME280;59604;52.138;5.446;2022-09-09T06:08:37;100828.50;;;14.00;92.83
71768;BME280;59604;52.138;5.446;2022-09-09T06:11:25;100819.31;;;14.02;92.89
71768;BME280;59604;52.138;5.446;2022-09-09T06:13:52;100824.41;;;14.04;92.79
71768;BME280;59604;52.138;5.446;2022-09-09T06:16:22;100825.00;;;14.06;93.00
71768;BME280;59604;52.138;5.446;2022-09-09T06:18:51;100825.41;;;14.10;92.85
71768;BME280;59604;52.138;5.446;2022-09-09T06:21:20;100815.00;;;14.15;93.15
71768;BME280;59604;52.138;5.446;2022-09-09T06:23:46;100813.31;;;14.20;93.32
71768;BME280;59604;52.138;5.446;2022-09-09T06:26:16;100812.47;;;14.26;93.38
71768;BME280;59604;52.138;5.446;2022-09-09T06:28:47;100810.81;;;14.32;93.19
71768;BME280;59604;52.138;5.446;2022-09-09T06:31:16;100818.13;;;14.37;93.13
71768;BME280;59604;52.138;5.446;2022-09-09T06:33:55;100809.53;;;14.41;93.19
71768;BME280;59604;52.138;5.446;2022-09-09T06:36:26;100810.75;;;14.45;93.18
71768;BME280;59604;52.138;5.446;2022-09-09T06:38:53;100803.81;;;14.51;93.26
71768;BME280;59604;52.138;5.446;2022-09-09T06:41:21;100799.06;;;14.60;93.20
71768;BME280;59604;52.138;5.446;2022-09-09T06:43:48;100804.47;;;14.71;93.42
71768;BME280;59604;52.138;5.446;2022-09-09T06:46:17;100806.38;;;14.89;93.26
71768;BME280;59604;52.138;5.446;2022-09-09T06:48:45;100807.03;;;15.10;93.16
71768;BME280;59604;52.138;5.446;2022-09-09T06:51:14;100811.31;;;15.29;92.79
71768;BME280;59604;52.138;5.446;2022-09-09T06:53:43;100806.59;;;15.50;92.65
71768;BME280;59604;52.138;5.446;2022-09-09T06:58:43;100806.34;;;15.76;91.85
71768;BME280;59604;52.138;5.446;2022-09-09T07:01:14;100813.84;;;15.79;90.92
71768;BME280;59604;52.138;5.446;2022-09-09T07:03:42;100805.00;;;15.85;91.01
71768;BME280;59604;52.138;5.446;2022-09-09T07:06:14;100813.56;;;15.87;90.45
71768;BME280;59604;52.138;5.446;2022-09-09T07:08:41;100816.59;;;15.91;90.67
71768;BME280;59604;52.138;5.446;2022-09-09T07:11:08;100806.34;;;15.94;90.81
71768;BME280;59604;52.138;5.446;2022-09-09T07:13:37;100814.34;;;16.06;90.68
71768;BME280;59604;52.138;5.446;2022-09-09T07:16:08;100805.81;;;16.16;89.45
71768;BME280;59604;52.138;5.446;2022-09-09T07:18:35;100811.28;;;16.21;89.58
71768;BME280;59604;52.138;5.446;2022-09-09T07:21:03;100805.06;;;16.27;88.82
71768;BME280;59604;52.138;5.446;2022-09-09T07:23:30;100811.00;;;16.41;88.70
71768;BME280;59604;52.138;5.446;2022-09-09T07:26:02;100811.94;;;16.47;88.15
71768;BME280;59604;52.138;5.446;2022-09-09T07:28:28;100811.25;;;16.39;88.30
71768;BME280;59604;52.138;5.446;2022-09-09T07:31:01;100805.78;;;16.34;88.29
71768;BME280;59604;52.138;5.446;2022-09-09T07:33:30;100823.66;;;16.27;88.16
71768;BME280;59604;52.138;5.446;2022-09-09T07:36:06;100818.66;;;16.19;87.82
71768;BME280;59604;52.138;5.446;2022-09-09T07:38:38;100823.63;;;16.15;87.82
71768;BME280;59604;52.138;5.446;2022-09-09T07:41:07;100819.94;;;16.16;88.02
71768;BME280;59604;52.138;5.446;2022-09-09T07:43:39;100820.88;;;16.22;87.87
71768;BME280;59604;52.138;5.446;2022-09-09T07:46:09;100811.31;;;16.33;87.50
71768;BME280;59604;52.138;5.446;2022-09-09T07:48:36;100815.41;;;16.47;87.59
71768;BME280;59604;52.138;5.446;2022-09-09T07:51:09;100811.44;;;16.68;86.59
71768;BME280;59604;52.138;5.446;2022-09-09T07:53:38;100810.09;;;16.89;86.72
71768;BME280;59604;52.138;5.446;2022-09-09T07:56:12;100806.16;;;17.03;84.77
71768;BME280;59604;52.138;5.446;2022-09-09T07:58:40;100801.78;;;17.09;85.03
71768;BME280;59604;52.138;5.446;2022-09-09T08:01:15;100804.53;;;17.14;84.47
71768;BME280;59604;52.138;5.446;2022-09-09T08:03:45;100805.13;;;17.16;83.36
71768;BME280;59604;52.138;5.446;2022-09-09T08:06:12;100805.25;;;17.09;83.48
71768;BME280;59604;52.138;5.446;2022-09-09T08:08:40;100806.84;;;17.10;83.81
71768;BME280;59604;52.138;5.446;2022-09-09T08:11:11;100809.41;;;17.05;83.90
71768;BME280;59604;52.138;5.446;2022-09-09T08:13:38;100821.31;;;17.03;83.32
71768;BME280;59604;52.138;5.446;2022-09-09T08:16:10;100815.53;;;17.06;83.54
71768;BME280;59604;52.138;5.446;2022-09-09T08:18:38;100819.81;;;17.07;83.04
71768;BME280;59604;52.138;5.446;2022-09-09T08:21:14;100817.59;;;17.15;82.67
71768;BME280;59604;52.138;5.446;2022-09-09T08:23:41;100826.19;;;17.06;82.14
71768;BME280;59604;52.138;5.446;2022-09-09T08:26:13;100827.34;;;16.98;83.01
71768;BME280;59604;52.138;5.446;2022-09-09T08:28:41;100828.16;;;16.99;83.24
71768;BME280;59604;52.138;5.446;2022-09-09T08:31:29;100829.53;;;17.01;82.58
71768;BME280;59604;52.138;5.446;2022-09-09T08:33:57;100826.75;;;16.96;83.17
71768;BME280;59604;52.138;5.446;2022-09-09T08:36:27;100835.19;;;16.93;82.70
71768;BME280;59604;52.138;5.446;2022-09-09T08:38:55;100834.25;;;16.87;82.16
71768;BME280;59604;52.138;5.446;2022-09-09T08:43:50;100840.38;;;16.76;83.27
71768;BME280;59604;52.138;5.446;2022-09-09T08:46:35;100842.22;;;16.76;82.86
71768;BME280;59604;52.138;5.446;2022-09-09T08:49:19;100845.81;;;16.81;82.28
71768;BME280;59604;52.138;5.446;2022-09-09T08:51:53;100845.81;;;16.93;82.94
71768;BME280;59604;52.138;5.446;2022-09-09T08:54:23;100848.84;;;16.97;82.58
71768;BME280;59604;52.138;5.446;2022-09-09T08:57:14;100857.28;;;16.94;82.50
71768;BME280;59604;52.138;5.446;2022-09-09T08:59:44;100847.22;;;16.96;82.45
71768;BME280;59604;52.138;5.446;2022-09-09T09:02:38;100841.66;;;16.97;82.37
71768;BME280;59604;52.138;5.446;2022-09-09T09:12:57;100863.78;;;17.09;82.78
71768;BME280;59604;52.138;5.446;2022-09-09T09:15:27;100854.66;;;17.17;81.53
71768;BME280;59604;52.138;5.446;2022-09-09T09:17:58;100856.16;;;17.13;82.00
71768;BME280;59604;52.138;5.446;2022-09-09T09:23:17;100855.56;;;17.11;81.67
71768;BME280;59604;52.138;5.446;2022-09-09T09:25:47;100855.47;;;17.06;81.97
71768;BME280;59604;52.138;5.446;2022-09-09T09:28:18;100864.50;;;17.05;81.42
71768;BME280;59604;52.138;5.446;2022-09-09T09:30:55;100861.00;;;17.04;81.72
71768;BME280;59604;52.138;5.446;2022-09-09T09:33:42;100859.16;;;17.05;82.21
71768;BME280;59604;52.138;5.446;2022-09-09T09:36:13;100859.84;;;17.12;81.94
71768;BME280;59604;52.138;5.446;2022-09-09T09:39:21;100854.88;;;17.15;82.10
71768;BME280;59604;52.138;5.446;2022-09-09T09:42:12;100852.44;;;17.26;81.73
71768;BME280;59604;52.138;5.446;2022-09-09T09:44:42;100849.22;;;17.35;80.28
71768;BME280;59604;52.138;5.446;2022-09-09T09:47:13;100849.31;;;17.41;80.86
71768;BME280;59604;52.138;5.446;2022-09-09T09:49:57;100851.53;;;17.44;80.21
71768;BME280;59604;52.138;5.446;2022-09-09T09:52:30;100849.31;;;17.41;79.75
71768;BME280;59604;52.138;5.446;2022-09-09T09:54:58;100849.31;;;17.41;79.88
71768;BME280;59604;52.138;5.446;2022-09-09T09:57:33;100854.53;;;17.47;79.72
71768;BME280;59604;52.138;5.446;2022-09-09T10:00:22;100861.34;;;17.55;80.20
71768;BME280;59604;52.138;5.446;2022-09-09T10:02:49;100852.56;;;17.54;79.55
71768;BME280;59604;52.138;5.446;2022-09-09T10:05:23;100846.09;;;17.50;80.25
71768;BME280;59604;52.138;5.446;2022-09-09T10:22:26;100841.91;;;17.43;79.66
71768;BME280;59604;52.138;5.446;2022-09-09T10:30:19;100851.41;;;17.38;79.47
71768;BME280;59604;52.138;5.446;2022-09-09T10:33:13;100851.41;;;17.38;79.09
71768;BME280;59604;52.138;5.446;2022-09-09T10:36:01;100864.75;;;17.38;79.41
71768;BME280;59604;52.138;5.446;2022-09-09T10:38:40;100866.59;;;17.38;80.33
71768;BME280;59604;52.138;5.446;2022-09-09T10:41:39;100861.94;;;17.45;80.92
71768;BME280;59604;52.138;5.446;2022-09-09T10:44:15;100857.28;;;17.52;81.42
71768;BME280;59604;52.138;5.446;2022-09-09T10:49:21;100868.91;;;17.46;81.98
71768;BME280;59604;52.138;5.446;2022-09-09T10:52:01;100867.25;;;17.33;82.75
71768;BME280;59604;52.138;5.446;2022-09-09T10:57:39;100859.97;;;17.52;83.90
71768;BME280;59604;52.138;5.446;2022-09-09T11:00:19;100862.47;;;17.71;83.66
71768;BME280;59604;52.138;5.446;2022-09-09T11:02:53;100864.69;;;17.85;82.67
71768;BME280;59604;52.138;5.446;2022-09-09T11:08:00;100854.88;;;18.15;82.89
71768;BME280;59604;52.138;5.446;2022-09-09T11:11:01;100856.78;;;18.59;82.65
71768;BME280;59604;52.138;5.446;2022-09-09T11:19:34;100846.47;;;19.14;78.67
71768;BME280;59604;52.138;5.446;2022-09-09T11:25:05;100842.81;;;19.20;77.89
71768;BME280;59604;52.138;5.446;2022-09-09T11:33:27;100840.06;;;18.81;78.79
71768;BME280;59604;52.138;5.446;2022-09-09T11:38:50;100830.91;;;18.60;78.86
71768;BME280;59604;52.138;5.446;2022-09-09T11:41:17;100834.66;;;18.76;78.65
71768;BME280;59604;52.138;5.446;2022-09-09T11:43:51;100828.84;;;18.79;76.80
71768;BME280;59604;52.138;5.446;2022-09-09T11:46:34;100828.91;;;18.67;76.88
71768;BME280;59604;52.138;5.446;2022-09-09T11:49:04;100831.31;;;18.69;77.26
71768;BME280;59604;52.138;5.446;2022-09-09T11:51:33;100821.31;;;18.76;78.08
71768;BME280;59604;52.138;5.446;2022-09-09T11:54:28;100824.47;;;18.90;76.98
71768;BME280;59604;52.138;5.446;2022-09-09T11:56:56;100817.91;;;18.80;76.33
71768;BME280;59604;52.138;5.446;2022-09-09T11:59:33;100831.72;;;18.61;77.35
71768;BME280;59604;52.138;5.446;2022-09-09T12:02:02;100830.88;;;18.43;79.10
71768;BME280;59604;52.138;5.446;2022-09-09T12:04:42;100825.94;;;18.35;79.27
71768;BME280;59604;52.138;5.446;2022-09-09T12:09:48;100834.81;;;18.41;81.62
71768;BME280;59604;52.138;5.446;2022-09-09T12:12:26;100828.22;;;18.43;81.01
71768;BME280;59604;52.138;5.446;2022-09-09T12:15:02;100835.13;;;18.27;80.89
71768;BME280;59604;52.138;5.446;2022-09-09T12:17:30;100834.59;;;18.14;81.83
71768;BME280;59604;52.138;5.446;2022-09-09T12:25:23;100843.25;;;17.92;82.25
71768;BME280;59604;52.138;5.446;2022-09-09T12:27:58;100837.16;;;17.80;82.59
71768;BME280;59604;52.138;5.446;2022-09-09T12:30:53;100837.25;;;17.73;83.29
71768;BME280;59604;52.138;5.446;2022-09-09T12:33:23;100833.88;;;17.90;84.59
71768;BME280;59604;52.138;5.446;2022-09-09T12:35:55;100835.66;;;18.13;84.02
71768;BME280;59604;52.138;5.446;2022-09-09T12:38:36;100837.16;;;18.37;83.23
71768;BME280;59604;52.138;5.446;2022-09-09T12:41:03;100839.19;;;18.47;83.33
71768;BME280;59604;52.138;5.446;2022-09-09T12:43:30;100829.53;;;18.57;82.65
71768;BME280;59604;52.138;5.446;2022-09-09T12:46:07;100827.25;;;18.66;82.07
71768;BME280;59604;52.138;5.446;2022-09-09T12:48:37;100825.06;;;18.75;81.56
71768;BME280;59604;52.138;5.446;2022-09-09T12:51:07;100825.84;;;18.92;81.59
71768;BME280;59604;52.138;5.446;2022-09-09T12:53:44;100823.69;;;18.89;80.70
71768;BME280;59604;52.138;5.446;2022-09-09T12:56:20;100815.72;;;18.77;80.89
71768;BME280;59604;52.138;5.446;2022-09-09T12:58:51;100812.88;;;18.67;81.27
71768;BME280;59604;52.138;5.446;2022-09-09T13:03:50;100815.19;;;18.75;80.98
71768;BME280;59604;52.138;5.446;2022-09-09T13:08:56;100816.22;;;18.91;78.89
71768;BME280;59604;52.138;5.446;2022-09-09T13:11:43;100818.94;;;19.13;78.65
71768;BME280;59604;52.138;5.446;2022-09-09T13:14:28;100820.13;;;19.39;79.60
71768;BME280;59604;52.138;5.446;2022-09-09T13:16:57;100820.84;;;19.73;78.01
71768;BME280;59604;52.138;5.446;2022-09-09T13:19:25;100824.13;;;20.02;75.17
71768;BME280;59604;52.138;5.446;2022-09-09T13:21:55;100826.88;;;19.86;75.70
71768;BME280;59604;52.138;5.446;2022-09-09T13:24:33;100820.00;;;19.68;75.66
71768;BME280;59604;52.138;5.446;2022-09-09T13:27:27;100815.84;;;19.60;76.17
71768;BME280;59604;52.138;5.446;2022-09-09T13:29:55;100821.63;;;19.52;76.51
71768;BME280;59604;52.138;5.446;2022-09-09T13:32:24;100822.19;;;19.54;76.64
71768;BME280;59604;52.138;5.446;2022-09-09T13:34:55;100817.63;;;19.54;76.65
71768;BME280;59604;52.138;5.446;2022-09-09T13:37:33;100814.78;;;19.61;77.27
71768;BME280;59604;52.138;5.446;2022-09-09T13:40:00;100812.28;;;19.54;75.95
71768;BME280;59604;52.138;5.446;2022-09-09T13:42:30;100815.78;;;19.33;77.17
71768;BME280;59604;52.138;5.446;2022-09-09T13:44:58;100809.06;;;19.30;77.10
71768;BME280;59604;52.138;5.446;2022-09-09T13:47:34;100806.13;;;19.32;77.00
71768;BME280;59604;52.138;5.446;2022-09-09T13:50:26;100810.13;;;19.29;77.16
71768;BME280;59604;52.138;5.446;2022-09-09T13:52:55;100801.28;;;19.29;76.49
71768;BME280;59604;52.138;5.446;2022-09-09T13:55:23;100806.88;;;19.27;77.10
71768;BME280;59604;52.138;5.446;2022-09-09T13:58:14;100805.50;;;19.25;77.23
71768;BME280;59604;52.138;5.446;2022-09-09T14:00:40;100811.75;;;19.14;77.04
71768;BME280;59604;52.138;5.446;2022-09-09T14:03:07;100813.06;;;19.11;77.34
71768;BME280;59604;52.138;5.446;2022-09-09T14:05:34;100809.50;;;19.05;77.44
71768;BME280;59604;52.138;5.446;2022-09-09T14:08:03;100808.44;;;19.06;77.48
71768;BME280;59604;52.138;5.446;2022-09-09T14:10:30;100811.38;;;19.05;77.53
71768;BME280;59604;52.138;5.446;2022-09-09T14:12:57;100805.69;;;19.01;77.76
71768;BME280;59604;52.138;5.446;2022-09-09T14:15:23;100812.34;;;18.99;77.50
71768;BME280;59604;52.138;5.446;2022-09-09T14:17:50;100809.44;;;19.00;78.13
71768;BME280;59604;52.138;5.446;2022-09-09T14:20:18;100804.41;;;19.04;77.57
71768;BME280;59604;52.138;5.446;2022-09-09T14:22:45;100812.16;;;19.05;77.16
71768;BME280;59604;52.138;5.446;2022-09-09T14:25:12;100800.19;;;19.08;77.48
71768;BME280;59604;52.138;5.446;2022-09-09T14:27:41;100799.13;;;19.09;77.33
71768;BME280;59604;52.138;5.446;2022-09-09T14:30:09;100800.09;;;19.03;77.84
71768;BME280;59604;52.138;5.446;2022-09-09T14:32:35;100806.94;;;18.94;77.82
71768;BME280;59604;52.138;5.446;2022-09-09T14:35:02;100802.66;;;18.93;78.19
71768;BME280;59604;52.138;5.446;2022-09-09T14:37:28;100796.25;;;18.94;78.83
71768;BME280;59604;52.138;5.446;2022-09-09T14:39:57;100801.75;;;18.87;79.02
71768;BME280;59604;52.138;5.446;2022-09-09T14:42:24;100799.81;;;18.82;79.52
71768;BME280;59604;52.138;5.446;2022-09-09T14:44:50;100801.69;;;18.82;79.54
71768;BME280;59604;52.138;5.446;2022-09-09T14:47:20;100802.97;;;18.79;80.72
71768;BME280;59604;52.138;5.446;2022-09-09T14:49:46;100804.56;;;18.80;81.31
71768;BME280;59604;52.138;5.446;2022-09-09T14:52:16;100794.88;;;18.74;81.35
71768;BME280;59604;52.138;5.446;2022-09-09T14:54:42;100785.94;;;18.69;81.37
71768;BME280;59604;52.138;5.446;2022-09-09T14:57:09;100787.81;;;18.68;82.15
71768;BME280;59604;52.138;5.446;2022-09-09T14:59:35;100785.16;;;18.68;82.21
71768;BME280;59604;52.138;5.446;2022-09-09T15:02:02;100791.53;;;18.67;82.30